Time;durP1;ratioP1;P1;durP2;ratioP2;P2;SDS_P1;SDS_P2;PMS_P1;PMS_P2;Temp;Humidity;BMP_temperature;BMP_pressure;BME280_temperature;BME280_humidity;BME280_pressure;Samples;Min_cycle;Max_cycle;Signal;HPM_P1;HPM_P2
2022/03/24 00:01:53;;;;;;;29.83;18.52;;;9.30;52.60;;;;;;5004923;28;20507;-63
2022/03/24 00:04:19;;;;;;;32.75;18.63;;;9.30;52.70;;;;;;4997062;28;20049;-63
2022/03/24 00:06:44;;;;;;;30.63;17.67;;;9.30;52.90;;;;;;5003952;28;20042;-63
2022/03/24 00:09:10;;;;;;;33.65;19.10;;;9.30;53.00;;;;;;4998748;28;20489;-63
2022/03/24 00:11:36;;;;;;;35.22;18.95;;;9.30;53.20;;;;;;5002257;28;20026;-64
2022/03/24 00:14:01;;;;;;;29.42;17.85;;;9.20;53.10;;;;;;5005844;28;20033;-64
2022/03/24 00:16:27;;;;;;;29.65;18.35;;;9.20;53.10;;;;;;5006299;28;20034;-63
2022/03/24 00:18:52;;;;;;;31.27;18.60;;;9.20;53.10;;;;;;5001729;28;20143;-63
2022/03/24 00:21:18;;;;;;;31.17;18.70;;;9.20;53.50;;;;;;5001683;28;20765;-64
2022/03/24 00:23:44;;;;;;;32.78;18.55;;;9.10;53.30;;;;;;5003326;28;20026;-63
2022/03/24 00:26:09;;;;;;;35.55;19.73;;;9.10;53.40;;;;;;5010764;28;20010;-64
2022/03/24 00:28:35;;;;;;;33.00;19.38;;;9.10;53.70;;;;;;5002829;28;20081;-64
2022/03/24 00:31:01;;;;;;;36.70;19.85;;;9.00;53.80;;;;;;4995815;28;20030;-63
2022/03/24 00:33:27;;;;;;;32.83;18.85;;;9.00;53.90;;;;;;4991781;28;20036;-63
2022/03/24 00:35:53;;;;;;;32.15;19.58;;;9.00;54.10;;;;;;4992424;28;20038;-62
2022/03/24 00:38:18;;;;;;;34.42;19.13;;;8.90;54.20;;;;;;4992258;28;20393;-62
2022/03/24 00:40:44;;;;;;;34.08;18.17;;;8.90;54.40;;;;;;5006381;28;20041;-62
2022/03/24 00:43:11;;;;;;;33.55;18.15;;;8.90;54.40;;;;;;4995394;28;20042;-63
2022/03/24 00:45:40;;;;;;;34.97;18.58;;;8.80;54.60;;;;;;5009966;28;20057;-63
2022/03/24 00:48:07;;;;;;;29.30;17.83;;;8.90;54.80;;;;;;4995193;28;20042;-63
2022/03/24 00:50:32;;;;;;;32.85;18.30;;;8.90;54.70;;;;;;5010504;28;20034;-62
2022/03/24 00:52:58;;;;;;;35.63;19.20;;;8.90;54.90;;;;;;4995296;28;20034;-62
2022/03/24 00:55:23;;;;;;;33.78;19.38;;;8.90;54.80;;;;;;5009495;28;20048;-62
2022/03/24 00:57:50;;;;;;;36.60;19.85;;;8.80;55.00;;;;;;5009148;28;20092;-63
2022/03/24 01:00:18;;;;;;;36.80;18.85;;;8.80;55.00;;;;;;5004389;28;20026;-62
2022/03/24 01:02:48;;;;;;;32.92;19.17;;;8.80;55.00;;;;;;5006224;28;20060;-62
2022/03/24 01:05:15;;;;;;;33.95;18.88;;;8.70;55.50;;;;;;5009272;28;20081;-63
2022/03/24 01:07:42;;;;;;;38.80;19.30;;;8.70;55.30;;;;;;5011397;28;20038;-62
2022/03/24 01:10:09;;;;;;;33.63;19.00;;;8.60;55.20;;;;;;5007170;28;20033;-63
2022/03/24 01:12:35;;;;;;;33.08;20.15;;;8.60;55.50;;;;;;5009343;28;20072;-62
2022/03/24 01:15:04;;;;;;;33.25;18.92;;;8.60;55.50;;;;;;4999558;28;20030;-62
2022/03/24 01:17:31;;;;;;;36.58;21.42;;;8.60;55.50;;;;;;5006182;28;20117;-62
2022/03/24 01:19:57;;;;;;;32.90;19.27;;;8.60;55.80;;;;;;5002340;28;20029;-62
2022/03/24 01:22:23;;;;;;;36.83;20.52;;;8.50;55.90;;;;;;4995655;28;20035;-62
2022/03/24 01:24:48;;;;;;;33.78;19.73;;;8.50;56.20;;;;;;4992983;28;20042;-63
2022/03/24 01:27:16;;;;;;;32.75;19.67;;;8.50;55.90;;;;;;5000168;28;20084;-63
2022/03/24 01:29:41;;;;;;;35.15;19.83;;;8.50;56.30;;;;;;5004756;28;20053;-63
2022/03/24 01:32:07;;;;;;;37.08;20.02;;;8.50;56.20;;;;;;5003997;28;20390;-62
2022/03/24 01:34:34;;;;;;;34.88;21.17;;;8.50;56.30;;;;;;5009076;28;20042;-64
2022/03/24 01:37:00;;;;;;;38.15;22.33;;;8.50;56.50;;;;;;5008568;28;20168;-63
2022/03/24 01:39:25;;;;;;;38.42;21.92;;;8.50;56.50;;;;;;5002200;28;20040;-63
2022/03/24 01:41:51;;;;;;;37.22;20.92;;;8.40;56.50;;;;;;5004814;28;20485;-63
2022/03/24 01:44:21;;;;;;;35.33;21.55;;;8.40;56.50;;;;;;5012629;28;20018;-63
2022/03/24 01:47:05;;;;;;;40.78;23.33;;;8.40;56.50;;;;;;5005680;28;20030;-63
2022/03/24 01:49:33;;;;;;;40.58;21.98;;;8.40;56.70;;;;;;5010118;28;20110;-63
2022/03/24 01:51:59;;;;;;;40.65;22.33;;;8.40;56.50;;;;;;5005868;28;20177;-63
2022/03/24 01:54:30;;;;;;;36.22;21.50;;;8.30;56.70;;;;;;4999947;28;20113;-63
2022/03/24 01:56:56;;;;;;;36.65;20.40;;;8.30;56.70;;;;;;5004716;28;20039;-63
2022/03/24 01:59:21;;;;;;;39.25;22.35;;;8.30;56.70;;;;;;4999204;28;20037;-63
2022/03/24 02:01:47;;;;;;;36.55;21.77;;;8.20;57.10;;;;;;5012515;28;20030;-64
2022/03/24 02:04:14;;;;;;;38.65;21.70;;;8.20;57.20;;;;;;5012662;28;20061;-63
2022/03/24 02:06:40;;;;;;;39.50;22.67;;;8.10;57.80;;;;;;5009789;28;20026;-63
2022/03/24 02:09:06;;;;;;;34.72;21.50;;;8.10;57.40;;;;;;5014121;28;20030;-63
2022/03/24 02:11:34;;;;;;;33.63;19.88;;;8.10;57.60;;;;;;5001430;28;20120;-64
2022/03/24 02:14:00;;;;;;;40.05;22.15;;;8.10;57.60;;;;;;4994572;28;20038;-62
2022/03/24 02:16:34;;;;;;;35.75;20.33;;;8.10;57.60;;;;;;4999135;28;20038;-63
2022/03/24 02:19:34;;;;;;;39.80;21.92;;;8.10;57.90;;;;;;5013592;28;20026;-63
2022/03/24 02:22:10;;;;;;;38.65;22.50;;;8.10;57.80;;;;;;5003144;28;20052;-63
2022/03/24 02:24:37;;;;;;;37.15;21.67;;;8.00;58.10;;;;;;5012230;28;20037;-63
2022/03/24 02:27:03;;;;;;;34.80;21.13;;;8.00;58.20;;;;;;5001687;28;20037;-63
2022/03/24 02:29:28;;;;;;;36.60;20.63;;;7.90;58.20;;;;;;5003332;28;20026;-63
2022/03/24 02:31:54;;;;;;;37.97;21.38;;;7.90;58.50;;;;;;4997004;28;20018;-63
2022/03/24 02:37:11;;;;;;;38.95;22.63;;;7.80;58.60;;;;;;4998995;28;20052;-62
2022/03/24 02:39:39;;;;;;;40.50;22.50;;;7.80;58.80;;;;;;5008147;28;20026;-63
2022/03/24 02:42:06;;;;;;;40.88;23.15;;;7.80;58.90;;;;;;4998425;28;20018;-63
2022/03/24 02:44:32;;;;;;;35.35;21.85;;;7.70;59.00;;;;;;5009149;28;20053;-63
2022/03/24 02:47:00;;;;;;;37.35;22.13;;;7.70;59.30;;;;;;4997734;28;20579;-63
2022/03/24 02:49:30;;;;;;;38.03;23.60;;;7.60;59.40;;;;;;4993846;28;20031;-63
2022/03/24 02:51:58;;;;;;;40.42;24.88;;;7.50;59.80;;;;;;4995665;28;20073;-63
2022/03/24 02:54:26;;;;;;;37.97;23.77;;;7.50;59.60;;;;;;5011828;28;20113;-62
2022/03/24 02:56:51;;;;;;;36.15;23.38;;;7.40;60.20;;;;;;5009798;28;20540;-63
2022/03/24 02:59:17;;;;;;;41.15;22.58;;;7.40;60.20;;;;;;5003329;28;20034;-62
2022/03/24 03:01:50;;;;;;;38.35;21.75;;;7.30;60.20;;;;;;4995815;28;20416;-63
2022/03/24 03:04:15;;;;;;;35.63;20.35;;;7.30;60.20;;;;;;5001368;28;20418;-63
2022/03/24 03:06:42;;;;;;;39.85;22.38;;;7.30;60.00;;;;;;5011130;28;20026;-63
2022/03/24 03:09:07;;;;;;;38.92;21.00;;;7.20;60.30;;;;;;5008217;28;20048;-62
2022/03/24 03:11:33;;;;;;;41.85;21.58;;;7.20;60.60;;;;;;5012197;28;20038;-62
2022/03/24 03:13:59;;;;;;;43.28;22.52;;;7.10;60.60;;;;;;5008755;28;20106;-63
2022/03/24 03:16:25;;;;;;;36.83;21.65;;;7.10;60.60;;;;;;4997610;28;20033;-62
2022/03/24 03:18:52;;;;;;;39.15;22.25;;;7.10;61.00;;;;;;5010403;28;20351;-62
2022/03/24 03:21:17;;;;;;;37.97;20.73;;;7.10;60.80;;;;;;5006678;28;20482;-62
2022/03/24 03:23:44;;;;;;;36.58;21.27;;;7.00;61.00;;;;;;5005906;28;20030;-62
2022/03/24 03:26:11;;;;;;;34.10;19.48;;;7.00;61.70;;;;;;5024451;28;20552;-63
2022/03/24 03:28:37;;;;;;;37.38;20.70;;;6.90;61.30;;;;;;5005907;28;20065;-62
2022/03/24 03:31:05;;;;;;;37.78;22.08;;;6.90;61.60;;;;;;5007989;28;20038;-62
2022/03/24 03:33:33;;;;;;;38.35;22.15;;;6.90;62.20;;;;;;5007895;28;20026;-63
2022/03/24 03:35:59;;;;;;;39.53;21.75;;;6.80;61.70;;;;;;5009234;28;20030;-62
2022/03/24 03:38:26;;;;;;;39.30;21.85;;;6.80;62.10;;;;;;5009313;28;20171;-62
2022/03/24 03:40:52;;;;;;;43.58;23.10;;;6.80;62.40;;;;;;5009034;28;20030;-63
2022/03/24 03:43:18;;;;;;;41.80;24.38;;;6.70;62.30;;;;;;4992583;28;20410;-62
2022/03/24 03:45:44;;;;;;;43.97;25.30;;;6.70;63.40;;;;;;4993232;28;20030;-63
2022/03/24 03:48:10;;;;;;;40.65;23.27;;;6.60;63.80;;;;;;4992890;28;20484;-63
2022/03/24 03:50:37;;;;;;;38.65;22.13;;;6.60;63.70;;;;;;5004408;28;20034;-62
2022/03/24 03:53:02;;;;;;;35.92;21.40;;;6.50;63.60;;;;;;5000292;28;20481;-62
2022/03/24 03:55:29;;;;;;;38.15;21.73;;;6.50;63.40;;;;;;5004997;28;20030;-62
2022/03/24 03:57:55;;;;;;;36.60;21.00;;;6.50;63.40;;;;;;4995306;28;20069;-63
2022/03/24 04:06:27;;;;;;;40.75;22.48;;;6.50;63.80;;;;;;4987379;28;20049;-62
2022/03/24 04:08:52;;;;;;;43.20;23.30;;;6.50;64.00;;;;;;5000649;28;20038;-62
2022/03/24 04:11:19;;;;;;;46.75;24.42;;;6.50;63.70;;;;;;4994928;28;20021;-62
2022/03/24 04:13:45;;;;;;;40.78;24.65;;;6.50;64.00;;;;;;5001776;28;20430;-62
2022/03/24 04:16:11;;;;;;;41.45;23.60;;;6.50;64.20;;;;;;4999747;28;20034;-62
2022/03/24 04:18:46;;;;;;;44.30;24.30;;;6.50;64.30;;;;;;4995794;28;20042;-62
2022/03/24 04:21:12;;;;;;;47.15;26.25;;;6.50;64.30;;;;;;4992251;28;20368;-63
2022/03/24 04:23:41;;;;;;;43.70;24.73;;;6.50;64.20;;;;;;4992436;28;20049;-63
2022/03/24 04:26:08;;;;;;;41.60;24.20;;;6.50;64.50;;;;;;4991377;28;20026;-62
2022/03/24 04:28:33;;;;;;;38.97;22.65;;;6.40;64.50;;;;;;5005445;28;20038;-62
2022/03/24 04:30:59;;;;;;;42.42;24.45;;;6.40;64.70;;;;;;5007330;28;20077;-63
2022/03/24 04:33:25;;;;;;;41.60;24.65;;;6.40;65.10;;;;;;5007574;28;20077;-63
2022/03/24 04:35:51;;;;;;;43.53;23.70;;;6.30;65.20;;;;;;5001554;28;20030;-62
2022/03/24 04:38:16;;;;;;;43.00;24.20;;;6.30;65.20;;;;;;5007477;28;20040;-63
2022/03/24 04:40:42;;;;;;;39.90;22.85;;;6.30;65.30;;;;;;5007403;28;20049;-62
2022/03/24 04:43:08;;;;;;;42.88;24.45;;;6.20;65.50;;;;;;5010149;28;20049;-62
2022/03/24 04:45:34;;;;;;;41.35;23.38;;;6.30;65.70;;;;;;5005746;28;20113;-62
2022/03/24 04:48:00;;;;;;;42.78;24.02;;;6.30;65.90;;;;;;5004868;28;20041;-62
2022/03/24 04:50:26;;;;;;;44.45;23.75;;;6.30;66.10;;;;;;5006459;28;20438;-62
2022/03/24 04:52:52;;;;;;;40.42;25.90;;;6.30;66.20;;;;;;4996986;28;20041;-63
2022/03/24 04:55:18;;;;;;;45.28;24.50;;;6.30;66.50;;;;;;5009945;28;20027;-63
2022/03/24 04:57:44;;;;;;;39.75;24.20;;;6.30;66.60;;;;;;5007998;28;20057;-63
2022/03/24 05:00:10;;;;;;;45.45;24.88;;;6.30;66.60;;;;;;5007972;28;20112;-63
2022/03/24 05:02:36;;;;;;;45.83;26.08;;;6.30;66.90;;;;;;5007250;28;20493;-63
2022/03/24 05:05:02;;;;;;;46.97;27.02;;;6.30;66.70;;;;;;5004120;28;20030;-64
2022/03/24 05:07:28;;;;;;;47.67;24.63;;;6.30;66.90;;;;;;5009237;28;20148;-64
2022/03/24 05:09:54;;;;;;;42.90;24.02;;;6.30;66.90;;;;;;5008454;28;20513;-63
2022/03/24 05:12:20;;;;;;;45.60;25.60;;;6.30;66.80;;;;;;5007725;28;20100;-63
2022/03/24 05:14:46;;;;;;;46.45;25.85;;;6.30;66.90;;;;;;5013009;28;20032;-63
2022/03/24 05:17:12;;;;;;;40.63;24.58;;;6.30;67.00;;;;;;5012128;28;20038;-64
2022/03/24 05:19:39;;;;;;;45.50;26.33;;;6.30;67.20;;;;;;5004641;28;20015;-63
2022/03/24 05:22:05;;;;;;;44.67;24.80;;;6.30;67.20;;;;;;5007827;28;20065;-63
2022/03/24 05:24:31;;;;;;;44.17;25.67;;;6.30;67.30;;;;;;5014825;28;20022;-63
2022/03/24 05:26:57;;;;;;;49.95;26.35;;;6.30;67.50;;;;;;5012171;28;20037;-63
2022/03/24 05:29:22;;;;;;;47.67;25.35;;;6.30;67.60;;;;;;5013092;28;20465;-63
2022/03/24 05:31:48;;;;;;;47.55;27.23;;;6.30;67.70;;;;;;5010659;28;20034;-63
2022/03/24 05:34:14;;;;;;;42.15;25.90;;;6.30;67.80;;;;;;5012486;28;20029;-63
2022/03/24 05:40:17;;;;;;;44.22;25.08;;;6.30;67.90;;;;;;4998123;28;20131;-63
2022/03/24 05:42:42;;;;;;;43.55;24.40;;;6.30;67.90;;;;;;5010446;28;20045;-63
2022/03/24 05:45:08;;;;;;;46.80;26.35;;;6.40;68.10;;;;;;5010875;28;20867;-63
2022/03/24 05:47:33;;;;;;;46.28;26.08;;;6.40;68.00;;;;;;5009088;28;20038;-63
2022/03/24 05:49:59;;;;;;;46.70;26.48;;;6.40;68.30;;;;;;5010091;28;20181;-63
2022/03/24 05:52:24;;;;;;;45.38;24.80;;;6.50;68.60;;;;;;4998734;28;20065;-64
2022/03/24 05:54:50;;;;;;;47.20;26.73;;;6.50;68.60;;;;;;5011279;28;20038;-63
2022/03/24 05:57:15;;;;;;;42.67;25.20;;;6.60;68.50;;;;;;5010348;28;20500;-62
2022/03/24 05:59:41;;;;;;;44.08;25.73;;;6.70;68.60;;;;;;5009935;28;20038;-65
2022/03/24 06:02:07;;;;;;;44.40;25.55;;;6.70;68.50;;;;;;5008907;28;20370;-65
2022/03/24 06:04:33;;;;;;;48.83;26.30;;;6.80;68.70;;;;;;4998407;28;20117;-64
2022/03/24 06:07:01;;;;;;;43.63;24.98;;;6.80;68.60;;;;;;5000440;28;20057;-65
2022/03/24 06:09:27;;;;;;;44.63;25.08;;;6.80;69.00;;;;;;5000948;28;20106;-65
2022/03/24 06:11:54;;;;;;;49.17;27.63;;;6.90;68.50;;;;;;5003852;28;20121;-65
2022/03/24 06:14:20;;;;;;;45.17;27.75;;;6.90;68.50;;;;;;5014077;28;20112;-64
2022/03/24 06:16:46;;;;;;;51.30;27.63;;;6.90;68.50;;;;;;5008154;28;20497;-64
2022/03/24 06:19:12;;;;;;;44.08;25.73;;;6.90;68.50;;;;;;5010425;28;20042;-64
2022/03/24 06:21:38;;;;;;;43.20;26.75;;;6.90;68.60;;;;;;5011208;28;20358;-64
2022/03/24 06:24:05;;;;;;;50.60;28.00;;;6.90;68.80;;;;;;5010141;28;20066;-64
2022/03/24 06:26:30;;;;;;;48.47;27.42;;;6.90;68.80;;;;;;4999102;28;20502;-64
2022/03/24 06:28:56;;;;;;;47.05;28.10;;;7.00;68.90;;;;;;4994005;28;20022;-64
2022/03/24 06:31:21;;;;;;;47.72;27.75;;;7.00;69.30;;;;;;5007749;28;20056;-64
2022/03/24 06:33:48;;;;;;;49.17;27.65;;;7.00;68.90;;;;;;5011850;28;20551;-64
2022/03/24 06:36:14;;;;;;;46.88;26.92;;;7.00;69.30;;;;;;5004741;28;20033;-64
2022/03/24 06:38:39;;;;;;;46.38;28.80;;;7.00;69.10;;;;;;5016748;28;20524;-64
2022/03/24 06:41:06;;;;;;;50.45;28.20;;;7.00;69.10;;;;;;5001783;28;20030;-64
2022/03/24 06:43:35;;;;;;;44.03;26.33;;;7.10;69.00;;;;;;5012950;28;20040;-65
2022/03/24 06:46:01;;;;;;;44.67;27.20;;;7.10;69.20;;;;;;5010159;28;20022;-64
2022/03/24 06:48:27;;;;;;;46.92;27.33;;;7.20;69.40;;;;;;4999535;28;20048;-64
2022/03/24 06:50:52;;;;;;;46.25;28.40;;;7.30;69.30;;;;;;4996293;28;20390;-65
2022/03/24 06:53:18;;;;;;;44.55;25.98;;;7.40;69.80;;;;;;5007053;28;20026;-64
2022/03/24 06:55:43;;;;;;;49.20;28.05;;;7.40;69.10;;;;;;4998429;28;20433;-65
2022/03/24 06:58:09;;;;;;;48.72;26.35;;;7.50;69.20;;;;;;5010701;28;20030;-63
2022/03/24 07:00:34;;;;;;;50.95;26.05;;;7.50;69.00;;;;;;5008579;28;20018;-63
2022/03/24 07:03:01;;;;;;;44.75;27.27;;;7.60;68.90;;;;;;4999396;28;20030;-65
2022/03/24 07:05:27;;;;;;;48.90;27.95;;;7.70;68.80;;;;;;4994873;28;20034;-65
2022/03/24 07:07:52;;;;;;;46.75;28.23;;;7.70;68.90;;;;;;5004702;28;20054;-65
2022/03/24 07:10:19;;;;;;;49.80;27.45;;;7.70;69.00;;;;;;5005127;28;20018;-65
2022/03/24 07:12:46;;;;;;;46.83;27.27;;;7.70;68.80;;;;;;5003643;28;20026;-65
2022/03/24 07:15:12;;;;;;;51.13;28.80;;;7.70;68.80;;;;;;5008660;28;20029;-64
2022/03/24 07:17:37;;;;;;;45.47;25.88;;;7.70;68.70;;;;;;5009031;28;20401;-64
2022/03/24 07:20:04;;;;;;;50.08;27.98;;;7.80;68.60;;;;;;4995687;28;20081;-65
2022/03/24 07:22:36;;;;;;;47.45;27.20;;;7.90;68.70;;;;;;4992347;28;20042;-64
2022/03/24 07:25:05;;;;;;;47.97;27.67;;;7.90;68.80;;;;;;5007865;28;20099;-65
2022/03/24 07:27:30;;;;;;;48.15;28.33;;;7.90;68.70;;;;;;5004130;28;20106;-64
2022/03/24 07:29:56;;;;;;;44.83;27.30;;;7.90;68.70;;;;;;4999569;28;20105;-64
2022/03/24 07:32:21;;;;;;;43.33;25.98;;;8.00;68.70;;;;;;5004506;28;20116;-64
2022/03/24 07:34:47;;;;;;;44.10;25.85;;;8.00;68.60;;;;;;5001829;28;20019;-65
2022/03/24 07:37:14;;;;;;;48.30;26.95;;;8.00;68.40;;;;;;5003184;28;20042;-65
2022/03/24 07:39:40;;;;;;;46.38;27.27;;;8.10;68.50;;;;;;5003105;28;20026;-64
2022/03/24 07:42:06;;;;;;;52.30;28.15;;;8.10;68.30;;;;;;5002925;28;20029;-65
2022/03/24 07:44:31;;;;;;;49.15;26.90;;;8.20;68.40;;;;;;5004665;28;20044;-65
2022/03/24 07:46:57;;;;;;;49.20;28.23;;;8.30;68.50;;;;;;5006252;28;20030;-65
2022/03/24 07:49:22;;;;;;;44.22;27.35;;;8.40;68.40;;;;;;5011208;28;20105;-65
2022/03/24 07:51:49;;;;;;;49.47;26.27;;;8.50;68.70;;;;;;5005214;28;20076;-64
2022/03/24 07:54:14;;;;;;;46.67;25.98;;;8.50;68.70;;;;;;5010612;28;20029;-64
2022/03/24 07:56:40;;;;;;;46.53;27.23;;;8.70;68.40;;;;;;4996444;28;20085;-63
2022/03/24 07:59:06;;;;;;;44.90;26.65;;;8.80;68.10;;;;;;5003323;28;20423;-64
2022/03/24 08:01:34;;;;;;;41.38;25.42;;;8.80;68.20;;;;;;5003600;28;20109;-64
2022/03/24 08:04:02;;;;;;;44.20;28.05;;;8.90;67.60;;;;;;5007346;28;20378;-64
2022/03/24 08:06:29;;;;;;;49.88;27.48;;;8.90;67.90;;;;;;5009986;28;20047;-64
2022/03/24 08:08:55;;;;;;;47.20;26.77;;;9.00;68.10;;;;;;5001932;28;20076;-64
2022/03/24 08:11:25;;;;;;;47.90;27.35;;;9.20;67.40;;;;;;5010212;28;20026;-65
2022/03/24 08:13:53;;;;;;;46.20;26.88;;;9.20;66.80;;;;;;5012364;28;20100;-64
2022/03/24 08:16:26;;;;;;;47.03;28.23;;;9.20;66.90;;;;;;5001111;28;20034;-65
2022/03/24 08:18:53;;;;;;;47.28;27.63;;;9.30;66.50;;;;;;5000172;28;20029;-66
2022/03/24 08:21:19;;;;;;;47.20;26.30;;;9.30;66.50;;;;;;5010592;28;20363;-65
2022/03/24 08:23:45;;;;;;;49.45;27.63;;;9.40;67.00;;;;;;5008173;28;20083;-64
2022/03/24 08:26:10;;;;;;;45.35;26.83;;;9.50;66.80;;;;;;5006762;28;20030;-65
2022/03/24 08:28:36;;;;;;;46.13;26.33;;;9.50;66.60;;;;;;4996277;28;20489;-65
2022/03/24 08:31:02;;;;;;;51.10;25.63;;;9.60;66.20;;;;;;5009816;28;20034;-64
2022/03/24 08:33:28;;;;;;;46.97;28.13;;;9.70;66.00;;;;;;4997667;28;20068;-65
2022/03/24 08:35:53;;;;;;;48.30;28.00;;;9.90;65.80;;;;;;5010372;28;20453;-65
2022/03/24 08:38:19;;;;;;;47.58;26.33;;;9.80;65.40;;;;;;5009797;28;20185;-65
2022/03/24 08:40:44;;;;;;;49.33;26.90;;;10.00;65.30;;;;;;5010069;28;20398;-65
2022/03/24 08:43:10;;;;;;;46.03;25.83;;;10.00;65.10;;;;;;4997608;28;20504;-64
2022/03/24 08:45:37;;;;;;;48.88;27.23;;;10.10;64.90;;;;;;5011337;28;20021;-65
2022/03/24 08:48:03;;;;;;;48.03;28.75;;;10.10;64.80;;;;;;5008733;28;20026;-66
2022/03/24 08:50:28;;;;;;;43.47;26.60;;;10.20;64.70;;;;;;5015190;28;20034;-65
2022/03/24 08:52:54;;;;;;;63.28;28.80;;;10.30;64.30;;;;;;5012363;28;20496;-66
2022/03/24 08:55:19;;;;;;;48.20;26.85;;;10.30;64.10;;;;;;5014001;28;20393;-67
2022/03/24 08:57:45;;;;;;;43.38;26.60;;;10.30;64.00;;;;;;5007431;28;20493;-64
2022/03/24 09:00:15;;;;;;;44.70;26.20;;;10.40;63.80;;;;;;4999071;28;20026;-63
2022/03/24 09:02:43;;;;;;;40.42;25.67;;;10.50;63.70;;;;;;4997876;28;20124;-63
2022/03/24 09:05:08;;;;;;;44.55;27.55;;;10.60;63.80;;;;;;5010081;28;20040;-63
2022/03/24 09:07:35;;;;;;;44.33;27.17;;;10.60;63.40;;;;;;5010480;28;20046;-63
2022/03/24 09:10:01;;;;;;;48.65;28.27;;;10.70;63.40;;;;;;4997506;28;20076;-63
2022/03/24 09:12:27;;;;;;;43.90;26.08;;;10.80;63.10;;;;;;5003034;28;20112;-63
2022/03/24 09:14:52;;;;;;;44.58;26.95;;;10.90;63.00;;;;;;5001513;28;20092;-63
2022/03/24 09:17:17;;;;;;;47.85;25.73;;;11.00;63.00;;;;;;5009989;28;20034;-63
2022/03/24 09:19:43;;;;;;;46.10;26.48;;;11.10;62.90;;;;;;5003339;28;20030;-63
2022/03/24 09:22:09;;;;;;;44.03;26.40;;;11.20;62.50;;;;;;4998309;28;20079;-63
2022/03/24 09:24:34;;;;;;;42.22;26.67;;;11.30;61.70;;;;;;5004746;28;20023;-63
2022/03/24 09:27:00;;;;;;;39.28;24.63;;;11.30;61.40;;;;;;5002039;28;20041;-63
2022/03/24 09:29:26;;;;;;;40.80;24.20;;;11.40;61.20;;;;;;5011257;28;20026;-62
2022/03/24 09:31:51;;;;;;;38.58;24.75;;;11.50;60.90;;;;;;4997669;28;20037;-63
2022/03/24 09:34:18;;;;;;;41.22;24.90;;;11.60;61.00;;;;;;5006744;28;20093;-63
2022/03/24 09:36:44;;;;;;;43.88;25.55;;;11.60;60.40;;;;;;4994270;28;20042;-62
2022/03/24 09:39:09;;;;;;;44.13;26.13;;;11.60;59.10;;;;;;5009912;28;20068;-63
2022/03/24 09:41:36;;;;;;;39.45;23.75;;;11.70;59.40;;;;;;5013634;28;20030;-63
2022/03/24 09:44:03;;;;;;;39.05;22.45;;;11.70;59.20;;;;;;5011916;28;20105;-63
2022/03/24 09:46:30;;;;;;;45.95;24.30;;;11.80;59.20;;;;;;5009205;28;20030;-63
2022/03/24 09:48:56;;;;;;;43.10;23.20;;;11.80;58.10;;;;;;5011618;28;20068;-63
2022/03/24 09:51:24;;;;;;;36.53;22.40;;;11.90;58.30;;;;;;5008048;28;20517;-62
2022/03/24 09:53:49;;;;;;;38.47;22.33;;;11.90;58.20;;;;;;5017563;28;20031;-62
2022/03/24 09:56:15;;;;;;;38.15;22.38;;;12.00;57.30;;;;;;5017973;28;20128;-63
2022/03/24 09:58:44;;;;;;;38.22;22.58;;;12.00;56.00;;;;;;5009988;28;20117;-63
2022/03/24 10:01:10;;;;;;;31.70;19.67;;;12.10;55.80;;;;;;5006737;28;20447;-62
2022/03/24 10:03:35;;;;;;;36.80;22.13;;;12.20;56.30;;;;;;4997379;28;20033;-63
2022/03/24 10:06:07;;;;;;;33.05;21.33;;;12.30;56.10;;;;;;5011826;28;20089;-63
2022/03/24 10:08:35;;;;;;;35.97;20.73;;;12.40;56.10;;;;;;4996859;28;20061;-63
2022/03/24 10:11:02;;;;;;;36.80;21.50;;;12.40;55.40;;;;;;5008958;28;20026;-64
2022/03/24 10:13:42;;;;;;;33.63;21.05;;;12.50;55.50;;;;;;5013402;28;20030;-65
2022/03/24 10:16:09;;;;;;;32.28;21.75;;;12.60;55.50;;;;;;5011575;28;20053;-65
2022/03/24 10:18:34;;;;;;;34.50;20.30;;;12.70;55.40;;;;;;5009076;28;20038;-64
2022/03/24 10:21:08;;;;;;;31.42;19.60;;;12.90;55.80;;;;;;5007149;28;20044;-64
2022/03/24 10:23:43;;;;;;;33.15;20.10;;;13.00;55.50;;;;;;5013158;28;20034;-64
2022/03/24 10:26:08;;;;;;;36.67;21.70;;;13.00;54.60;;;;;;5001899;28;20035;-64
2022/03/24 10:28:34;;;;;;;31.80;20.70;;;13.10;54.30;;;;;;4992644;28;20128;-64
2022/03/24 10:31:01;;;;;;;33.90;20.27;;;13.20;53.90;;;;;;5002736;28;20088;-63
2022/03/24 10:33:45;;;;;;;30.30;19.42;;;13.30;53.90;;;;;;5001191;28;20038;-64
2022/03/24 10:36:17;;;;;;;28.80;16.98;;;13.40;53.10;;;;;;5011309;28;20033;-65
2022/03/24 10:38:48;;;;;;;32.40;18.75;;;13.40;51.70;;;;;;5002950;28;20042;-64
2022/03/24 10:41:24;;;;;;;27.80;16.85;;;13.50;51.50;;;;;;5007922;28;20127;-65
2022/03/24 10:43:55;;;;;;;26.00;15.85;;;13.50;51.10;;;;;;4996966;28;20026;-64
2022/03/24 10:46:22;;;;;;;27.27;15.70;;;13.60;50.40;;;;;;5006923;28;20123;-65
2022/03/24 10:48:49;;;;;;;24.77;16.70;;;13.60;49.60;;;;;;5018280;28;20026;-64
2022/03/24 10:51:25;;;;;;;25.42;15.40;;;13.60;48.90;;;;;;5002415;28;20049;-63
2022/03/24 10:53:53;;;;;;;25.85;15.77;;;13.60;48.70;;;;;;5012446;28;20037;-64
2022/03/24 10:56:27;;;;;;;22.33;13.57;;;13.70;49.00;;;;;;5008103;28;20030;-64
2022/03/24 10:59:03;;;;;;;27.55;14.65;;;13.80;48.60;;;;;;5003567;28;20032;-64
2022/03/24 11:01:29;;;;;;;25.38;15.23;;;13.90;48.60;;;;;;5012720;28;20022;-64
2022/03/24 11:03:56;;;;;;;23.00;15.15;;;14.00;47.80;;;;;;5020990;28;20029;-63
2022/03/24 11:06:24;;;;;;;24.05;14.43;;;14.10;47.50;;;;;;5016845;28;20129;-64
2022/03/24 11:08:55;;;;;;;25.23;13.30;;;14.10;47.20;;;;;;5028199;28;20045;-64
2022/03/24 11:11:21;;;;;;;20.13;13.07;;;14.10;46.80;;;;;;5016409;28;20025;-65
2022/03/24 11:13:48;;;;;;;20.75;13.02;;;14.20;45.50;;;;;;5011541;28;20030;-66
2022/03/24 11:16:15;;;;;;;20.13;12.25;;;14.20;45.10;;;;;;5007030;28;20033;-65
2022/03/24 11:18:41;;;;;;;23.05;14.05;;;14.30;45.40;;;;;;5012292;28;20044;-65
2022/03/24 11:21:15;;;;;;;22.00;13.63;;;14.30;45.30;;;;;;5007594;28;20025;-63
2022/03/24 11:23:43;;;;;;;21.17;13.45;;;14.40;44.90;;;;;;5010020;28;20034;-64
2022/03/24 11:26:10;;;;;;;23.33;12.88;;;14.40;45.30;;;;;;4998844;28;20057;-64
2022/03/24 11:28:37;;;;;;;21.92;12.68;;;14.40;44.70;;;;;;5010338;28;20033;-64
2022/03/24 11:31:11;;;;;;;20.75;11.88;;;14.50;44.90;;;;;;5007829;28;20044;-65
2022/03/24 11:33:40;;;;;;;24.08;12.85;;;14.60;44.70;;;;;;5004905;28;20063;-64
2022/03/24 11:36:07;;;;;;;21.50;11.75;;;14.70;44.60;;;;;;5002546;28;20038;-64
2022/03/24 11:38:32;;;;;;;16.25;10.13;;;14.70;42.60;;;;;;5003139;28;20504;-64
2022/03/24 11:41:04;;;;;;;21.52;10.68;;;14.80;43.50;;;;;;5006675;28;20025;-65
2022/03/24 11:43:31;;;;;;;21.17;11.70;;;14.90;43.60;;;;;;4998558;28;20486;-64
2022/03/24 11:46:02;;;;;;;18.42;11.27;;;14.90;42.60;;;;;;4995529;28;20359;-64
2022/03/24 11:48:39;;;;;;;18.80;12.02;;;15.00;42.30;;;;;;5002844;28;20021;-64
2022/03/24 11:51:16;;;;;;;19.63;11.27;;;15.00;42.20;;;;;;5008059;28;20030;-64
2022/03/24 11:53:42;;;;;;;19.35;10.43;;;15.00;42.20;;;;;;5003918;28;20033;-65
2022/03/24 11:56:08;;;;;;;15.88;8.10;;;15.00;41.60;;;;;;5007748;28;20441;-64
2022/03/24 11:58:52;;;;;;;16.88;8.45;;;15.00;40.40;;;;;;4996530;28;20045;-64
2022/03/24 12:01:17;;;;;;;18.20;9.60;;;15.00;40.40;;;;;;5008408;28;20053;-64
2022/03/24 12:03:44;;;;;;;22.65;11.02;;;15.10;41.20;;;;;;5010424;28;20493;-64
2022/03/24 12:06:13;;;;;;;20.02;11.85;;;15.20;41.40;;;;;;5016988;28;20509;-63
2022/03/24 12:08:47;;;;;;;19.73;11.32;;;15.20;41.10;;;;;;4996710;28;20161;-64
2022/03/24 12:11:37;;;;;;;18.30;10.32;;;15.30;41.30;;;;;;5002912;28;20036;-64
2022/03/24 12:14:15;;;;;;;23.55;12.00;;;15.30;41.80;;;;;;5000819;28;20056;-65
2022/03/24 12:16:46;;;;;;;22.20;13.05;;;15.40;41.40;;;;;;5013680;28;20045;-64
2022/03/24 12:19:57;;;;;;;21.83;12.75;;;15.50;41.80;;;;;;5009544;28;20027;-65
2022/03/24 12:22:26;;;;;;;23.08;12.52;;;15.50;41.90;;;;;;5007539;28;20406;-63
2022/03/24 12:24:52;;;;;;;18.73;11.43;;;15.60;41.90;;;;;;4999290;28;20044;-64
2022/03/24 12:27:18;;;;;;;18.88;11.13;;;15.60;42.30;;;;;;5007527;28;20042;-64
2022/03/24 12:30:11;;;;;;;20.75;12.18;;;15.70;41.50;;;;;;5005533;28;20553;-64
2022/03/24 12:32:37;;;;;;;19.20;10.98;;;15.70;40.80;;;;;;5005174;28;20394;-64
2022/03/24 12:35:04;;;;;;;17.58;11.23;;;15.70;40.70;;;;;;4996824;28;20386;-64
2022/03/24 12:37:35;;;;;;;21.20;11.13;;;15.70;40.40;;;;;;4997925;28;20050;-64
2022/03/24 12:40:06;;;;;;;18.75;11.68;;;15.70;39.80;;;;;;5010650;28;20156;-64
2022/03/24 12:42:51;;;;;;;15.98;9.93;;;15.70;39.50;;;;;;5015048;28;20481;-64
2022/03/24 12:45:22;;;;;;;18.88;9.95;;;15.70;39.90;;;;;;5002261;28;20042;-64
2022/03/24 12:47:49;;;;;;;18.15;10.02;;;15.70;39.40;;;;;;5009087;28;20511;-64